createdAt,value
2022-10-07T00:00:56.062Z,102658.06
2022-10-07T00:03:24.252Z,102644.88
2022-10-07T00:06:01.334Z,102653.53
2022-10-07T00:08:27.915Z,102650.81
2022-10-07T00:10:54.196Z,102644.59
2022-10-07T00:13:20.594Z,102641.06
2022-10-07T00:15:46.919Z,102637.50
2022-10-07T00:18:13.250Z,102641.94
2022-10-07T00:20:40.111Z,102634.94
2022-10-07T00:23:07.828Z,102619.78
2022-10-07T00:25:37.845Z,102629.59
2022-10-07T00:28:13.722Z,102627.88
2022-10-07T00:31:02.568Z,102620.72
2022-10-07T00:33:37.946Z,102608.41
2022-10-07T00:36:23.507Z,102623.50
2022-10-07T00:39:01.644Z,102616.56
2022-10-07T00:41:32.651Z,102610.31
2022-10-07T00:44:00.276Z,102605.94
2022-10-07T00:46:32.272Z,102606.81
2022-10-07T00:49:05.231Z,102606.00
2022-10-07T00:51:47.017Z,102600.56
2022-10-07T00:54:17.058Z,102601.47
2022-10-07T00:56:44.676Z,102607.69
2022-10-07T00:59:13.980Z,102604.16
2022-10-07T01:01:42.071Z,102605.06
2022-10-07T01:04:10.254Z,102597.13
2022-10-07T01:06:39.225Z,102596.13
2022-10-07T01:09:11.047Z,102588.22
2022-10-07T01:11:52.516Z,102587.41
2022-10-07T01:14:24.697Z,102584.69
2022-10-07T01:17:12.980Z,102582.06
2022-10-07T01:19:58.214Z,102578.38
2022-10-07T01:22:53.249Z,102566.75
2022-10-07T01:25:46.390Z,102565.00
2022-10-07T01:28:28.016Z,102568.50
2022-10-07T01:31:00.750Z,102567.69
2022-10-07T01:33:32.150Z,102565.06
2022-10-07T01:36:04.822Z,102560.59
2022-10-07T01:38:33.856Z,102545.53
2022-10-07T01:41:15.041Z,102548.22
2022-10-07T01:43:46.199Z,102536.81
2022-10-07T01:46:18.457Z,102536.75
2022-10-07T01:48:48.967Z,102542.81
2022-10-07T01:51:18.808Z,102533.22
2022-10-07T01:53:54.053Z,102526.22
2022-10-07T01:56:48.513Z,102521.00
2022-10-07T01:59:46.901Z,102521.06
2022-10-07T02:02:41.257Z,102513.16
2022-10-07T02:05:15.095Z,102494.63
2022-10-07T02:08:04.563Z,102491.81
2022-10-07T02:11:08.512Z,102491.75
2022-10-07T02:14:11.993Z,102489.03
2022-10-07T02:16:48.239Z,102483.66
2022-10-07T02:19:19.514Z,102486.38
2022-10-07T02:21:51.017Z,102483.66
2022-10-07T02:24:22.679Z,102477.53
2022-10-07T02:26:52.208Z,102466.94
2022-10-07T02:29:21.720Z,102464.22
2022-10-07T02:31:48.825Z,102461.41
2022-10-07T02:34:23.989Z,102459.63
2022-10-07T02:36:58.610Z,102455.25
2022-10-07T02:39:25.056Z,102453.47
2022-10-07T02:42:21.937Z,102447.25
2022-10-07T02:44:53.291Z,102447.97
2022-10-07T02:47:37.580Z,102448.75
2022-10-07T02:50:10.870Z,102445.13
2022-10-07T02:52:39.506Z,102430.13
2022-10-07T02:55:09.486Z,102444.28
2022-10-07T02:57:42.697Z,102442.50
2022-10-07T03:00:11.418Z,102431.97
2022-10-07T03:02:51.751Z,102430.13
2022-10-07T03:05:20.317Z,102431.94
2022-10-07T03:07:48.975Z,102423.00
2022-10-07T03:10:15.707Z,102431.97
2022-10-07T03:12:42.565Z,102429.22
2022-10-07T03:15:11.552Z,102425.66
2022-10-07T03:17:41.642Z,102422.13
2022-10-07T03:20:09.831Z,102408.81
2022-10-07T03:22:36.248Z,102416.63
2022-10-07T03:25:02.799Z,102404.19
2022-10-07T03:27:29.395Z,102403.25
2022-10-07T03:29:58.386Z,102400.56
2022-10-07T03:32:27.397Z,102397.09
2022-10-07T03:34:54.777Z,102392.72
2022-10-07T03:37:22.490Z,102390.03
2022-10-07T03:39:49.182Z,102391.03
2022-10-07T03:42:16.198Z,102395.31
2022-10-07T03:44:42.849Z,102396.16
2022-10-07T03:47:10.805Z,102387.28
2022-10-07T03:49:37.652Z,102397.94
2022-10-07T03:52:04.146Z,102392.66
2022-10-07T03:54:31.499Z,102389.94
2022-10-07T03:57:01.224Z,102387.28
2022-10-07T03:59:27.607Z,102385.53
2022-10-07T04:01:54.176Z,102390.81
2022-10-07T04:04:20.600Z,102384.59
2022-10-07T04:06:46.942Z,102389.03
2022-10-07T04:09:13.940Z,102390.00
2022-10-07T04:11:46.329Z,102389.22
2022-10-07T04:14:16.924Z,102383.00
2022-10-07T04:16:43.344Z,102375.09
2022-10-07T04:19:10.102Z,102377.75
2022-10-07T04:21:36.458Z,102379.50
2022-10-07T04:24:02.868Z,102377.56
2022-10-07T04:26:29.182Z,102373.16
2022-10-07T04:28:55.614Z,102369.53
2022-10-07T04:31:22.172Z,102366.81
2022-10-07T04:33:48.691Z,102368.66
2022-10-07T04:36:15.091Z,102365.88
2022-10-07T04:38:42.583Z,102370.16
2022-10-07T04:41:08.952Z,102364.78
2022-10-07T04:43:35.322Z,102362.13
2022-10-07T04:46:07.092Z,102362.91
2022-10-07T04:48:33.534Z,102359.25
2022-10-07T04:51:08.258Z,102360.13
2022-10-07T04:53:36.406Z,102361.81
2022-10-07T04:56:06.802Z,102360.13
2022-10-07T04:58:38.990Z,102353.06
2022-10-07T05:01:10.007Z,102350.50
2022-10-07T05:03:45.376Z,102347.47
2022-10-07T05:06:12.140Z,102358.16
2022-10-07T05:08:38.509Z,102339.66
2022-10-07T05:11:05.016Z,102342.22
2022-10-07T05:13:31.542Z,102345.00
2022-10-07T05:16:00.436Z,102340.63
2022-10-07T05:18:28.906Z,102343.31
2022-10-07T05:20:56.127Z,102341.50
2022-10-07T05:23:28.339Z,102339.72
2022-10-07T05:26:07.911Z,102337.25
2022-10-07T05:28:35.417Z,102335.56
2022-10-07T05:31:10.530Z,102337.41
2022-10-07T05:33:40.212Z,102340.03
2022-10-07T05:36:08.716Z,102326.00
2022-10-07T05:38:35.363Z,102333.03
2022-10-07T05:41:07.006Z,102329.44
2022-10-07T05:43:36.374Z,102326.88
2022-10-07T05:46:06.073Z,102323.38
2022-10-07T05:48:38.677Z,102320.72
2022-10-07T05:51:06.888Z,102314.69
2022-10-07T05:53:34.828Z,102322.66
2022-10-07T05:56:09.250Z,102316.53
2022-10-07T05:58:36.110Z,102316.59
2022-10-07T06:01:07.678Z,102314.09
2022-10-07T06:03:37.083Z,102310.59
2022-10-07T06:06:04.146Z,102310.59
2022-10-07T06:08:30.535Z,102307.06
2022-10-07T06:11:24.861Z,102306.25
2022-10-07T06:13:53.018Z,102294.81
2022-10-07T06:16:20.052Z,102301.97
2022-10-07T06:18:47.685Z,102302.84
2022-10-07T06:21:14.302Z,102304.66
2022-10-07T06:23:40.620Z,102305.66
2022-10-07T06:26:09.505Z,102301.28
2022-10-07T06:28:41.107Z,102301.31
2022-10-07T06:31:10.503Z,102313.75
2022-10-07T06:33:37.553Z,102303.56
2022-10-07T06:36:06.099Z,102299.03
2022-10-07T06:38:33.118Z,102291.94
2022-10-07T06:41:01.410Z,102305.78
2022-10-07T06:43:29.352Z,102299.31
2022-10-07T06:46:01.964Z,102305.09
2022-10-07T06:48:29.307Z,102312.41
2022-10-07T06:51:06.029Z,102301.00
2022-10-07T06:53:33.123Z,102308.19
2022-10-07T06:56:04.269Z,102313.81
2022-10-07T06:58:30.766Z,102305.38
2022-10-07T07:00:59.658Z,102308.84
2022-10-07T07:03:27.149Z,102305.16
2022-10-07T07:05:54.856Z,102297.19
2022-10-07T07:08:24.311Z,102317.19
2022-10-07T07:10:57.077Z,102302.13
2022-10-07T07:13:24.871Z,102308.19
2022-10-07T07:16:00.085Z,102306.38
2022-10-07T07:18:26.809Z,102305.44
2022-10-07T07:20:53.127Z,102308.09
2022-10-07T07:23:23.718Z,102306.28
2022-10-07T07:25:53.305Z,102301.00
2022-10-07T07:28:19.981Z,102299.28
2022-10-07T07:30:48.890Z,102296.69
2022-10-07T07:33:15.256Z,102296.72
2022-10-07T07:35:43.649Z,102297.63
2022-10-07T07:38:10.175Z,102306.44
2022-10-07T07:40:38.273Z,102306.47
2022-10-07T07:43:05.827Z,102302.13
2022-10-07T07:45:35.333Z,102306.63
2022-10-07T07:48:01.706Z,102299.66
2022-10-07T07:50:29.388Z,102302.28
2022-10-07T07:53:04.899Z,102293.63
2022-10-07T07:55:33.996Z,102297.22
2022-10-07T07:58:00.392Z,102297.34
2022-10-07T08:00:26.919Z,102309.81
2022-10-07T08:02:55.237Z,102297.66
2022-10-07T08:05:24.207Z,102296.94
2022-10-07T08:07:52.344Z,102281.22
2022-10-07T08:10:19.251Z,102287.63
2022-10-07T08:12:45.842Z,102293.56
2022-10-07T08:15:12.927Z,102282.06
2022-10-07T08:17:39.255Z,102272.13
2022-10-07T08:20:06.499Z,102264.69
2022-10-07T08:22:33.729Z,102269.34
2022-10-07T08:25:00.308Z,102262.41
2022-10-07T08:27:28.126Z,102275.72
2022-10-07T08:29:54.514Z,102266.81
2022-10-07T08:32:23.482Z,102256.00
2022-10-07T08:34:49.909Z,102264.72
2022-10-07T08:37:20.090Z,102261.19
2022-10-07T08:39:46.564Z,102259.34
2022-10-07T08:42:28.033Z,102265.50
2022-10-07T08:44:55.793Z,102259.28
2022-10-07T08:47:30.567Z,102255.75
2022-10-07T08:50:23.975Z,102260.09
2022-10-07T08:53:02.913Z,102253.16
2022-10-07T08:55:43.999Z,102258.66
2022-10-07T08:58:15.658Z,102245.44
2022-10-07T09:00:50.599Z,102249.06
2022-10-07T09:03:39.059Z,102245.53
2022-10-07T09:06:16.222Z,102243.81
2022-10-07T09:08:48.075Z,102242.94
2022-10-07T09:11:20.444Z,102260.66
2022-10-07T09:13:56.389Z,102246.44
2022-10-07T09:16:43.398Z,102242.91
2022-10-07T09:19:36.176Z,102244.72
2022-10-07T09:22:11.759Z,102242.06
2022-10-07T09:24:38.559Z,102240.28
2022-10-07T09:27:13.566Z,102228.75
2022-10-07T09:29:43.097Z,102226.09
2022-10-07T09:32:15.139Z,102230.50
2022-10-07T09:34:41.580Z,102238.47
2022-10-07T09:37:15.864Z,102239.31
2022-10-07T09:39:43.936Z,102228.59
2022-10-07T09:42:41.023Z,102225.91
2022-10-07T09:45:25.212Z,102221.44
2022-10-07T09:47:55.386Z,102204.53
2022-10-07T09:50:32.726Z,102205.44
2022-10-07T09:53:03.437Z,102210.72
2022-10-07T09:55:42.669Z,102204.47
2022-10-07T09:58:24.682Z,102204.44
2022-10-07T10:00:52.305Z,102201.78
2022-10-07T10:03:19.737Z,102203.66
2022-10-07T10:05:58.409Z,102195.78
2022-10-07T10:08:35.637Z,102202.91
2022-10-07T10:11:07.257Z,102201.16
2022-10-07T10:13:40.516Z,102203.00
2022-10-07T10:16:28.788Z,102190.66
2022-10-07T10:19:02.509Z,102184.44
2022-10-07T10:21:32.616Z,102179.97
2022-10-07T10:24:01.445Z,102172.78
2022-10-07T10:27:00.036Z,102170.84
2022-10-07T10:29:54.157Z,102168.09
2022-10-07T10:32:43.515Z,102168.91
2022-10-07T10:35:31.855Z,102175.88
2022-10-07T10:38:17.253Z,102161.44
2022-10-07T10:41:04.612Z,102163.88
2022-10-07T10:43:43.200Z,102157.25
2022-10-07T10:46:31.342Z,102161.63
2022-10-07T10:49:22.854Z,102144.00
2022-10-07T10:52:13.501Z,102145.09
2022-10-07T10:55:01.099Z,102140.84
2022-10-07T10:57:48.843Z,102133.00
2022-10-07T11:00:20.892Z,102128.72
2022-10-07T11:03:05.653Z,102122.56
2022-10-07T11:05:37.390Z,102126.19
2022-10-07T11:08:12.858Z,102115.63
2022-10-07T11:10:50.096Z,102106.81
2022-10-07T11:13:40.902Z,102109.50
2022-10-07T11:16:18.270Z,102100.72
2022-10-07T11:18:51.981Z,102094.56
2022-10-07T11:21:25.452Z,102085.72
2022-10-07T11:24:01.697Z,102082.19
2022-10-07T11:26:42.215Z,102094.63
2022-10-07T11:29:22.861Z,102091.06
2022-10-07T11:32:08.121Z,102085.75
2022-10-07T11:34:42.656Z,102079.56
2022-10-07T11:37:22.175Z,102080.53
2022-10-07T11:39:49.837Z,102068.97
2022-10-07T11:42:22.642Z,102065.41
2022-10-07T11:45:31.037Z,102068.00
2022-10-07T11:48:01.554Z,102066.22
2022-10-07T11:50:35.719Z,102054.63
2022-10-07T11:53:09.660Z,102050.97
2022-10-07T11:55:44.289Z,102057.09
2022-10-07T11:58:31.562Z,102047.28
2022-10-07T12:01:25.705Z,102036.59
2022-10-07T12:03:54.557Z,102027.63
2022-10-07T12:06:20.974Z,102024.84
2022-10-07T12:08:47.718Z,102020.25
2022-10-07T12:11:15.096Z,102017.56
2022-10-07T12:13:45.154Z,102017.66
2022-10-07T12:16:23.772Z,102021.19
2022-10-07T12:19:10.420Z,102014.06
2022-10-07T12:22:04.770Z,102003.41
2022-10-07T12:24:34.537Z,101993.69
2022-10-07T12:27:13.265Z,102000.69
2022-10-07T12:29:50.770Z,102007.81
2022-10-07T12:32:46.647Z,101999.88
2022-10-07T12:35:34.848Z,101999.97
2022-10-07T12:38:10.057Z,101996.47
2022-10-07T12:40:37.494Z,101986.84
2022-10-07T12:43:27.265Z,101980.72
2022-10-07T12:45:54.655Z,101969.28
2022-10-07T12:48:24.031Z,101981.84
2022-10-07T12:50:54.180Z,101960.53
2022-10-07T12:53:24.610Z,101964.94
2022-10-07T12:55:55.223Z,101963.13
2022-10-07T12:59:13.524Z,101956.84
2022-10-07T13:01:47.164Z,101953.19
2022-10-07T13:04:36.464Z,101946.88
2022-10-07T13:08:07.203Z,101927.25
2022-10-07T13:10:51.939Z,101942.41
2022-10-07T13:13:26.124Z,101931.81
2022-10-07T13:16:01.192Z,101935.44
2022-10-07T13:18:42.900Z,101932.81
2022-10-07T13:21:24.495Z,101932.84
2022-10-07T13:23:53.569Z,101924.00
2022-10-07T13:26:22.547Z,101931.16
2022-10-07T13:28:51.972Z,101918.78
2022-10-07T13:31:27.047Z,101908.25
2022-10-07T13:33:56.727Z,101917.09
2022-10-07T13:36:28.947Z,101909.16
2022-10-07T13:39:35.570Z,101910.13
2022-10-07T13:42:02.923Z,101898.63
2022-10-07T13:44:33.337Z,101904.00
2022-10-07T13:47:02.105Z,101905.78
2022-10-07T13:49:51.248Z,101906.63
2022-10-07T13:52:39.753Z,101894.22
2022-10-07T13:55:32.463Z,101893.38
2022-10-07T13:58:14.683Z,101887.16
2022-10-07T14:00:46.089Z,101873.88
2022-10-07T14:03:20.336Z,101885.41
2022-10-07T14:05:52.703Z,101877.41
2022-10-07T14:08:21.999Z,101870.28
2022-10-07T14:11:18.699Z,101871.16
2022-10-07T14:13:48.903Z,101876.44
2022-10-07T14:16:23.953Z,101871.13
2022-10-07T14:18:52.744Z,101864.84
2022-10-07T14:21:19.476Z,101859.44
2022-10-07T14:23:49.876Z,101855.91
2022-10-07T14:26:17.585Z,101855.88
2022-10-07T14:28:45.738Z,101849.66
2022-10-07T14:31:34.450Z,101843.41
2022-10-07T14:34:40.500Z,101841.72
2022-10-07T14:37:11.909Z,101832.91
2022-10-07T14:39:47.940Z,101825.88
2022-10-07T14:42:28.917Z,101830.28
2022-10-07T14:44:57.431Z,101818.75
2022-10-07T14:47:26.061Z,101814.28
2022-10-07T14:49:53.726Z,101814.25
2022-10-07T14:52:32.261Z,101814.19
2022-10-07T14:55:02.881Z,101802.69
2022-10-07T14:57:29.994Z,101812.41
2022-10-07T14:59:59.720Z,101802.69
2022-10-07T15:02:26.417Z,101789.41
2022-10-07T15:04:55.903Z,101807.13
2022-10-07T15:07:22.370Z,101799.16
2022-10-07T15:09:48.727Z,101804.47
2022-10-07T15:12:27.241Z,101792.94
2022-10-07T15:14:57.771Z,101781.47
2022-10-07T15:17:24.359Z,101784.19
2022-10-07T15:19:52.704Z,101788.69
2022-10-07T15:22:19.139Z,101788.69
2022-10-07T15:24:45.775Z,101782.50
2022-10-07T15:27:12.349Z,101778.06
2022-10-07T15:29:39.459Z,101775.44
2022-10-07T15:32:07.772Z,101771.94
2022-10-07T15:34:34.326Z,101761.34
2022-10-07T15:37:01.110Z,101763.19
2022-10-07T15:39:27.518Z,101759.59
2022-10-07T15:41:57.791Z,101761.34
2022-10-07T15:44:25.301Z,101771.13
2022-10-07T15:46:59.542Z,101756.09
2022-10-07T15:49:26.903Z,101754.34
2022-10-07T15:52:00.827Z,101754.34
2022-10-07T15:54:27.508Z,101749.97
2022-10-07T15:56:54.130Z,101738.44
2022-10-07T15:59:20.727Z,101749.97
2022-10-07T16:01:50.678Z,101736.75
2022-10-07T16:04:18.449Z,101742.13
2022-10-07T16:06:51.788Z,101738.59
2022-10-07T16:09:20.006Z,101735.97
2022-10-07T16:11:47.533Z,101739.50
2022-10-07T16:14:14.670Z,101735.13
2022-10-07T16:16:41.854Z,101730.72
2022-10-07T16:19:12.354Z,101736.03
2022-10-07T16:21:41.692Z,101729.00
2022-10-07T16:24:13.725Z,101721.94
2022-10-07T16:26:44.637Z,101721.94
2022-10-07T16:29:36.274Z,101720.22
2022-10-07T16:32:03.450Z,101722.03
2022-10-07T16:34:30.088Z,101722.03
2022-10-07T16:37:05.353Z,101712.31
2022-10-07T16:39:31.712Z,101711.41
2022-10-07T16:41:59.766Z,101705.25
2022-10-07T16:44:26.894Z,101708.81
2022-10-07T16:46:56.858Z,101710.56
2022-10-07T16:49:28.279Z,101714.09
2022-10-07T16:51:55.275Z,101705.28
2022-10-07T16:54:22.031Z,101705.34
2022-10-07T16:56:53.919Z,101707.97
2022-10-07T16:59:23.720Z,101704.47
2022-10-07T17:01:53.143Z,101709.78
2022-10-07T17:04:19.985Z,101696.59
2022-10-07T17:06:47.592Z,101707.19
2022-10-07T17:09:14.641Z,101712.53
2022-10-07T17:11:41.752Z,101711.66
2022-10-07T17:14:10.491Z,101709.03
2022-10-07T17:16:39.781Z,101701.09
2022-10-07T17:19:10.157Z,101705.56
2022-10-07T17:21:37.963Z,101705.56
2022-10-07T17:24:04.894Z,101711.81
2022-10-07T17:26:31.413Z,101707.41
2022-10-07T17:29:04.391Z,101710.06
2022-10-07T17:31:31.420Z,101711.88
2022-10-07T17:33:59.445Z,101703.88
2022-10-07T17:36:27.155Z,101707.44
2022-10-07T17:38:54.161Z,101701.28
2022-10-07T17:41:26.072Z,101706.59
2022-10-07T17:43:55.759Z,101701.28
2022-10-07T17:46:24.035Z,101704.84
2022-10-07T17:48:52.613Z,101703.06
2022-10-07T17:51:20.893Z,101692.50
2022-10-07T17:53:50.254Z,101691.63
2022-10-07T17:56:17.185Z,101703.06
2022-10-07T17:58:45.889Z,101687.16
2022-10-07T18:01:24.025Z,101690.72
2022-10-07T18:03:52.693Z,101688.06
2022-10-07T18:06:20.367Z,101686.31
2022-10-07T18:08:47.990Z,101690.72
2022-10-07T18:11:18.058Z,101691.59
2022-10-07T18:14:03.524Z,101692.50
2022-10-07T18:16:34.715Z,101691.59
2022-10-07T18:19:05.948Z,101687.22
2022-10-07T18:21:34.546Z,101681.03
2022-10-07T18:24:01.806Z,101687.22
2022-10-07T18:26:30.998Z,101684.56
2022-10-07T18:28:58.171Z,101688.13
2022-10-07T18:31:24.668Z,101688.09
2022-10-07T18:33:51.370Z,101688.09
2022-10-07T18:36:21.024Z,101681.94
2022-10-07T18:38:47.597Z,101684.56
2022-10-07T18:41:23.633Z,101668.66
2022-10-07T18:43:54.092Z,101676.63
2022-10-07T18:46:20.699Z,101676.66
2022-10-07T18:48:50.198Z,101673.97
2022-10-07T18:51:17.631Z,101664.25
2022-10-07T18:53:48.863Z,101670.47
2022-10-07T18:56:18.654Z,101668.75
2022-10-07T18:58:47.587Z,101659.00
2022-10-07T19:01:20.067Z,101651.06
2022-10-07T19:03:48.716Z,101660.78
2022-10-07T19:06:20.620Z,101662.56
2022-10-07T19:08:47.259Z,101649.31
2022-10-07T19:11:16.860Z,101651.09
2022-10-07T19:13:58.973Z,101638.75
2022-10-07T19:16:30.197Z,101650.22
2022-10-07T19:18:59.231Z,101646.69
2022-10-07T19:21:26.872Z,101651.13
2022-10-07T19:23:57.606Z,101650.25
2022-10-07T19:26:26.425Z,101644.94
2022-10-07T19:28:54.390Z,101648.50
2022-10-07T19:31:32.184Z,101643.19
2022-10-07T19:34:03.540Z,101651.13
2022-10-07T19:36:32.514Z,101648.50
2022-10-07T19:38:59.721Z,101648.50
2022-10-07T19:41:30.051Z,101660.84
2022-10-07T19:43:57.827Z,101653.81
2022-10-07T19:46:30.540Z,101647.59
2022-10-07T19:48:58.976Z,101628.19
2022-10-07T19:51:27.540Z,101638.81
2022-10-07T19:53:59.693Z,101634.41
2022-10-07T19:56:29.206Z,101636.13
2022-10-07T19:58:57.883Z,101630.84
2022-10-07T20:01:27.174Z,101635.25
2022-10-07T20:04:02.067Z,101627.31
2022-10-07T20:06:29.099Z,101622.91
2022-10-07T20:08:56.593Z,101622.00
2022-10-07T20:11:23.503Z,101623.75
2022-10-07T20:13:50.714Z,101625.50
2022-10-07T20:16:20.479Z,101620.19
2022-10-07T20:18:49.909Z,101622.84
2022-10-07T20:21:19.217Z,101614.94
2022-10-07T20:23:51.849Z,101612.28
2022-10-07T20:26:24.977Z,101620.19
2022-10-07T20:28:54.237Z,101614.91
2022-10-07T20:31:23.099Z,101613.13
2022-10-07T20:33:51.882Z,101607.84
2022-10-07T20:36:21.013Z,101610.50
2022-10-07T20:39:07.610Z,101605.19
2022-10-07T20:42:03.618Z,101604.31
2022-10-07T20:44:30.190Z,101605.16
2022-10-07T20:46:57.322Z,101608.72
2022-10-07T20:49:28.114Z,101606.03
2022-10-07T20:51:57.586Z,101596.34
2022-10-07T20:54:26.953Z,101592.81
2022-10-07T20:56:54.780Z,101591.94
2022-10-07T20:59:21.305Z,101586.63
2022-10-07T21:01:48.489Z,101601.63
2022-10-07T21:04:15.712Z,101605.16
2022-10-07T21:06:42.924Z,101600.72
2022-10-07T21:09:14.725Z,101596.34
2022-10-07T21:11:41.469Z,101592.81
2022-10-07T21:14:08.227Z,101587.50
2022-10-07T21:16:36.261Z,101583.13
2022-10-07T21:19:03.613Z,101582.22
2022-10-07T21:21:36.095Z,101592.81
2022-10-07T21:24:02.823Z,101578.69
2022-10-07T21:26:29.955Z,101576.03
2022-10-07T21:28:56.673Z,101581.31
2022-10-07T21:31:25.773Z,101580.44
2022-10-07T21:33:52.988Z,101580.44
2022-10-07T21:36:21.821Z,101577.78
2022-10-07T21:38:55.155Z,101580.44
2022-10-07T21:41:24.517Z,101572.47
2022-10-07T21:43:55.777Z,101573.38
2022-10-07T21:46:24.103Z,101565.44
2022-10-07T21:48:50.731Z,101561.91
2022-10-07T21:51:17.388Z,101559.28
2022-10-07T21:53:45.618Z,101556.63
2022-10-07T21:56:13.422Z,101553.09
2022-10-07T21:58:42.693Z,101553.97
2022-10-07T22:01:14.036Z,101548.69
2022-10-07T22:03:40.955Z,101548.69
2022-10-07T22:06:09.941Z,101545.16
2022-10-07T22:08:37.226Z,101534.59
2022-10-07T22:11:13.829Z,101537.22
2022-10-07T22:13:45.717Z,101538.13
2022-10-07T22:16:16.576Z,101540.78
2022-10-07T22:18:46.142Z,101533.72
2022-10-07T22:21:15.474Z,101523.13
2022-10-07T22:23:43.131Z,101531.06
2022-10-07T22:26:12.815Z,101537.22
2022-10-07T22:28:50.655Z,101530.19
2022-10-07T22:31:17.675Z,101537.22
2022-10-07T22:33:49.336Z,101519.59
2022-10-07T22:36:15.753Z,101520.50
2022-10-07T22:38:45.592Z,101524.88
2022-10-07T22:41:14.733Z,101523.13
2022-10-07T22:43:44.177Z,101516.94
2022-10-07T22:46:18.762Z,101519.56
2022-10-07T22:48:50.009Z,101516.94
2022-10-07T22:51:16.809Z,101520.50
2022-10-07T22:53:48.398Z,101526.66
2022-10-07T22:56:17.596Z,101523.13
2022-10-07T22:58:52.185Z,101520.50
2022-10-07T23:01:18.926Z,101520.50
2022-10-07T23:03:46.441Z,101524.91
2022-10-07T23:06:17.018Z,101525.78
2022-10-07T23:08:44.230Z,101523.16
2022-10-07T23:11:15.314Z,101531.09
2022-10-07T23:13:42.180Z,101537.25
2022-10-07T23:16:12.032Z,101536.38
2022-10-07T23:18:43.025Z,101545.19
2022-10-07T23:21:21.093Z,101554.03
2022-10-07T23:23:50.262Z,101554.00
2022-10-07T23:26:19.333Z,101551.38
2022-10-07T23:28:47.084Z,101541.66
2022-10-07T23:31:18.117Z,101539.00
2022-10-07T23:33:47.235Z,101544.31
2022-10-07T23:36:14.892Z,101543.41
2022-10-07T23:38:44.780Z,101542.53
2022-10-07T23:41:16.504Z,101549.59
2022-10-07T23:43:43.022Z,101542.56
2022-10-07T23:46:13.256Z,101538.13
2022-10-07T23:48:41.277Z,101535.47
2022-10-07T23:51:10.426Z,101542.53
2022-10-07T23:53:36.880Z,101531.97
2022-10-07T23:56:03.574Z,101528.44
2022-10-07T23:58:31.329Z,101523.13
